Time;durP1;ratioP1;P1;durP2;ratioP2;P2;SDS_P1;SDS_P2;PMS_P1;PMS_P2;Temp;Humidity;BMP_temperature;BMP_pressure;BME280_temperature;BME280_humidity;BME280_pressure;Samples;Min_cycle;Max_cycle;Signal;HPM_P1;HPM_P2
2023/02/23 00:01:35;;;;;;;76.60;40.65;;;;;;;;;;5028622;28;20496;-70
2023/02/23 00:04:01;;;;;;;77.35;38.80;;;;;;;;;;5027521;28;20100;-70
2023/02/23 00:06:27;;;;;;;82.20;40.88;;;;;;;;;;5027371;28;20463;-70
2023/02/23 00:08:53;;;;;;;79.40;41.55;;;;;;;;;;5024251;28;20017;-70
2023/02/23 00:11:19;;;;;;;73.70;41.15;;;;;;;;;;5025903;28;20025;-70
2023/02/23 00:13:45;;;;;;;86.10;42.20;;;;;;;;;;5025769;28;20082;-69
2023/02/23 00:16:12;;;;;;;81.95;41.92;;;;;;;;;;5023482;28;20025;-70
2023/02/23 00:18:44;;;;;;;81.25;40.60;;;;;;;;;;5020204;28;20032;-69
2023/02/23 00:21:13;;;;;;;81.82;42.00;;;;;;;;;;5015778;28;20029;-69
2023/02/23 00:23:39;;;;;;;75.43;40.28;;;;;;;;;;5011778;28;20032;-69
2023/02/23 00:26:04;;;;;;;81.10;41.38;;;;;;;;;;5016168;28;20021;-69
2023/02/23 00:28:29;;;;;;;89.85;42.97;;;;;;;;;;5023373;28;20021;-69
2023/02/23 00:30:54;;;;;;;74.80;39.40;;;;;;;;;;5019982;28;20077;-69
2023/02/23 00:33:19;;;;;;;82.83;41.67;;;;;;;;;;5014599;28;20277;-70
2023/02/23 00:35:44;;;;;;;85.83;43.10;;;;;;;;;;5021069;28;20350;-69
2023/02/23 00:38:10;;;;;;;79.20;41.97;;;;;;;;;;5015785;28;20268;-69
2023/02/23 00:40:39;;;;;;;96.40;43.45;;;;;;;;;;5013454;28;20285;-69
2023/02/23 00:43:04;;;;;;;81.38;42.55;;;;;;;;;;5024243;28;20036;-69
2023/02/23 00:45:29;;;;;;;85.77;42.53;;;;;;;;;;5025841;28;20022;-69
2023/02/23 00:47:55;;;;;;;89.33;44.57;;;;;;;;;;5021778;28;20272;-69
2023/02/23 00:50:20;;;;;;;81.03;42.13;;;;;;;;;;5020160;28;20332;-70
2023/02/23 00:52:45;;;;;;;80.57;42.78;;;;;;;;;;5024611;28;20268;-69
2023/02/23 00:55:11;;;;;;;90.20;44.40;;;;;;;;;;5020829;28;20030;-69
2023/02/23 00:57:36;;;;;;;83.57;43.35;;;;;;;;;;5026707;28;20765;-69
2023/02/23 01:00:19;;;;;;;89.95;43.42;;;;;;;;;;5022231;28;20029;-69
2023/02/23 01:02:46;;;;;;;86.88;43.35;;;;;;;;;;5023628;28;20022;-69
2023/02/23 01:05:12;;;;;;;85.63;42.35;;;;;;;;;;5025308;28;20490;-69
2023/02/23 01:07:38;;;;;;;87.88;45.75;;;;;;;;;;5024503;28;20029;-69
2023/02/23 01:10:17;;;;;;;80.65;43.45;;;;;;;;;;5021522;28;20105;-69
2023/02/23 01:12:43;;;;;;;89.53;44.58;;;;;;;;;;5019833;28;21004;-69
2023/02/23 01:15:10;;;;;;;82.68;43.83;;;;;;;;;;5026073;28;20029;-69
2023/02/23 01:17:36;;;;;;;84.20;42.95;;;;;;;;;;5023724;28;20022;-69
2023/02/23 01:20:01;;;;;;;96.87;45.70;;;;;;;;;;5025356;28;20029;-69
2023/02/23 01:22:26;;;;;;;82.93;44.37;;;;;;;;;;5021288;28;20275;-69
2023/02/23 01:24:51;;;;;;;91.63;44.27;;;;;;;;;;5021431;28;20347;-69
2023/02/23 01:27:16;;;;;;;87.70;45.03;;;;;;;;;;5027034;28;20295;-68
2023/02/23 01:29:41;;;;;;;77.87;42.43;;;;;;;;;;5019778;28;20028;-69
2023/02/23 01:32:07;;;;;;;84.43;42.95;;;;;;;;;;5022226;28;20308;-69
2023/02/23 01:34:32;;;;;;;81.37;42.23;;;;;;;;;;5030661;28;20056;-69
2023/02/23 01:36:57;;;;;;;80.03;41.23;;;;;;;;;;5026032;28;20256;-69
2023/02/23 01:39:22;;;;;;;86.73;43.07;;;;;;;;;;5022101;28;20347;-69
2023/02/23 01:41:50;;;;;;;84.25;45.10;;;;;;;;;;5028701;28;20272;-69
2023/02/23 01:44:18;;;;;;;85.45;43.78;;;;;;;;;;5024857;28;20013;-69
2023/02/23 01:46:44;;;;;;;91.18;44.75;;;;;;;;;;5026930;28;20022;-69
2023/02/23 01:49:14;;;;;;;81.68;42.38;;;;;;;;;;5023583;28;20018;-69
2023/02/23 01:51:41;;;;;;;81.27;44.03;;;;;;;;;;5025832;28;20084;-69
2023/02/23 01:54:18;;;;;;;88.88;44.88;;;;;;;;;;5025568;28;20037;-69
2023/02/23 01:56:46;;;;;;;86.97;43.35;;;;;;;;;;5027837;28;20026;-68
2023/02/23 01:59:14;;;;;;;89.60;43.90;;;;;;;;;;5026487;28;20045;-69
2023/02/23 02:01:39;;;;;;;97.95;44.13;;;;;;;;;;5030822;28;20048;-69
2023/02/23 02:04:04;;;;;;;85.03;44.33;;;;;;;;;;5026968;28;20589;-69
2023/02/23 02:06:30;;;;;;;89.47;44.67;;;;;;;;;;5025044;28;20053;-69
2023/02/23 02:08:58;;;;;;;91.15;46.83;;;;;;;;;;5024939;28;20045;-69
2023/02/23 02:11:35;;;;;;;87.97;45.25;;;;;;;;;;5022085;28;20021;-69
2023/02/23 02:14:01;;;;;;;101.47;49.40;;;;;;;;;;5025172;28;20021;-69
2023/02/23 02:16:45;;;;;;;96.43;47.70;;;;;;;;;;5030128;28;20026;-69
2023/02/23 02:19:17;;;;;;;94.00;48.22;;;;;;;;;;5024610;28;20075;-69
2023/02/23 02:22:03;;;;;;;90.20;47.13;;;;;;;;;;5021109;28;20060;-69
2023/02/23 02:24:47;;;;;;;89.97;46.65;;;;;;;;;;5023160;28;20025;-69
2023/02/23 02:27:27;;;;;;;97.25;47.17;;;;;;;;;;5025131;28;20021;-69
2023/02/23 02:30:15;;;;;;;99.63;48.85;;;;;;;;;;5025636;28;20044;-69
2023/02/23 02:32:54;;;;;;;96.45;49.47;;;;;;;;;;5027009;28;20037;-69
2023/02/23 02:35:22;;;;;;;97.07;49.35;;;;;;;;;;5022329;28;20022;-69
2023/02/23 02:38:00;;;;;;;100.90;49.28;;;;;;;;;;5019272;28;20061;-69
2023/02/23 02:40:29;;;;;;;98.32;48.38;;;;;;;;;;5018930;28;20480;-69
2023/02/23 02:42:59;;;;;;;97.30;47.93;;;;;;;;;;5021263;28;20036;-69
2023/02/23 02:45:42;;;;;;;98.85;48.45;;;;;;;;;;5020224;28;20427;-69
2023/02/23 02:48:43;;;;;;;100.13;49.08;;;;;;;;;;5027267;28;20017;-69
2023/02/23 02:51:09;;;;;;;97.57;47.65;;;;;;;;;;5024435;28;20049;-69
2023/02/23 02:53:46;;;;;;;106.53;52.25;;;;;;;;;;5020829;28;20052;-69
2023/02/23 02:56:13;;;;;;;102.15;50.20;;;;;;;;;;5021659;28;20022;-69
2023/02/23 02:58:38;;;;;;;105.78;50.58;;;;;;;;;;5023535;28;20026;-69
2023/02/23 04:19:32;;;;;;;129.88;58.60;;;;;;;;;;5014738;28;20025;-69
2023/02/23 04:21:57;;;;;;;130.20;60.37;;;;;;;;;;5027896;28;20025;-69
2023/02/23 04:24:23;;;;;;;117.63;56.43;;;;;;;;;;5014763;28;20264;-69
2023/02/23 04:26:48;;;;;;;119.20;53.67;;;;;;;;;;5023862;28;20355;-69
2023/02/23 04:29:13;;;;;;;119.65;56.60;;;;;;;;;;5016714;28;20402;-68
2023/02/23 04:31:40;;;;;;;115.45;56.67;;;;;;;;;;5023876;28;20096;-68
2023/02/23 04:34:05;;;;;;;115.20;55.92;;;;;;;;;;5018869;28;20067;-69
2023/02/23 04:36:30;;;;;;;105.65;52.35;;;;;;;;;;5020877;28;20363;-69
2023/02/23 04:38:55;;;;;;;106.67;52.70;;;;;;;;;;5019257;28;20371;-68
2023/02/23 04:41:21;;;;;;;115.33;54.83;;;;;;;;;;5022320;28;20371;-68
2023/02/23 04:43:46;;;;;;;110.28;54.75;;;;;;;;;;5018054;28;20672;-69
2023/02/23 04:46:11;;;;;;;108.90;53.10;;;;;;;;;;5013725;28;20549;-69
2023/02/23 04:48:37;;;;;;;114.60;54.53;;;;;;;;;;5020501;28;20360;-68
2023/02/23 04:51:02;;;;;;;112.20;54.47;;;;;;;;;;5020879;28;20725;-69
2023/02/23 04:53:27;;;;;;;111.75;53.00;;;;;;;;;;5014775;28;20061;-69
2023/02/23 04:58:55;;;;;;;117.20;53.88;;;;;;;;;;5014995;28;20020;-69
2023/02/23 05:01:21;;;;;;;117.70;56.35;;;;;;;;;;5016516;28;20033;-69
2023/02/23 05:03:47;;;;;;;120.53;55.17;;;;;;;;;;5013772;28;20368;-69
2023/02/23 05:06:14;;;;;;;128.23;60.17;;;;;;;;;;5023754;28;20095;-69
2023/02/23 05:08:39;;;;;;;135.80;59.42;;;;;;;;;;5020130;28;20022;-69
2023/02/23 05:11:05;;;;;;;131.60;59.77;;;;;;;;;;5022770;28;20392;-69
2023/02/23 05:13:30;;;;;;;145.60;60.25;;;;;;;;;;5029041;28;20255;-69
2023/02/23 05:15:56;;;;;;;142.03;59.47;;;;;;;;;;5025089;28;20021;-69
2023/02/23 05:18:21;;;;;;;155.75;67.07;;;;;;;;;;5026255;28;20272;-68
2023/02/23 05:20:47;;;;;;;141.53;60.60;;;;;;;;;;5027001;28;20025;-69
2023/02/23 05:23:12;;;;;;;165.82;65.38;;;;;;;;;;5018339;28;20809;-69
2023/02/23 05:25:37;;;;;;;159.35;63.05;;;;;;;;;;5027142;28;20032;-68
2023/02/23 05:28:03;;;;;;;159.95;66.30;;;;;;;;;;5018004;28;20026;-69
2023/02/23 05:30:28;;;;;;;163.88;69.32;;;;;;;;;;5026752;28;20021;-69
2023/02/23 05:32:53;;;;;;;189.33;70.87;;;;;;;;;;5023575;28;20022;-68
2023/02/23 05:35:18;;;;;;;185.90;72.67;;;;;;;;;;5027015;28;20406;-69
2023/02/23 05:37:44;;;;;;;189.13;74.63;;;;;;;;;;5024315;28;20288;-69
2023/02/23 05:40:09;;;;;;;195.40;74.18;;;;;;;;;;5019921;28;20280;-69
2023/02/23 05:42:35;;;;;;;200.60;74.03;;;;;;;;;;5024802;28;20017;-69
2023/02/23 05:45:00;;;;;;;183.37;74.07;;;;;;;;;;5024777;28;20014;-69
2023/02/23 05:47:25;;;;;;;196.95;73.47;;;;;;;;;;5028016;28;20272;-69
2023/02/23 05:49:50;;;;;;;196.10;73.80;;;;;;;;;;5021397;28;20025;-69
2023/02/23 05:52:15;;;;;;;211.02;75.05;;;;;;;;;;5023516;28;21060;-69
2023/02/23 05:54:40;;;;;;;208.00;76.50;;;;;;;;;;5029663;28;20296;-68
2023/02/23 05:57:07;;;;;;;195.73;74.37;;;;;;;;;;5027844;28;20359;-69
2023/02/23 05:59:32;;;;;;;203.40;75.43;;;;;;;;;;5026743;28;20296;-69
2023/02/23 06:01:57;;;;;;;192.60;71.53;;;;;;;;;;5024919;28;20645;-69
2023/02/23 06:04:22;;;;;;;194.37;73.37;;;;;;;;;;5028274;28;20327;-68
2023/02/23 06:06:47;;;;;;;211.48;73.18;;;;;;;;;;5020946;28;20900;-70
2023/02/23 06:09:13;;;;;;;212.13;76.90;;;;;;;;;;5020363;28;20414;-68
2023/02/23 06:11:38;;;;;;;212.63;76.13;;;;;;;;;;5025759;28;20116;-68
2023/02/23 06:14:03;;;;;;;207.05;76.45;;;;;;;;;;5017508;28;20257;-68
2023/02/23 06:16:28;;;;;;;207.07;78.40;;;;;;;;;;5019956;28;20312;-68
2023/02/23 06:18:53;;;;;;;212.95;77.88;;;;;;;;;;5024169;28;20276;-68
2023/02/23 06:21:19;;;;;;;200.35;75.20;;;;;;;;;;5019422;28;20033;-68
2023/02/23 06:23:45;;;;;;;208.10;74.40;;;;;;;;;;5015713;28;20017;-68
2023/02/23 06:26:10;;;;;;;206.27;76.05;;;;;;;;;;5019033;28;20021;-68
2023/02/23 06:28:35;;;;;;;204.88;73.57;;;;;;;;;;5025892;28;20013;-68
2023/02/23 06:31:00;;;;;;;209.48;73.32;;;;;;;;;;5023911;28;20018;-68
2023/02/23 06:33:25;;;;;;;208.07;74.10;;;;;;;;;;5025055;28;20055;-68
2023/02/23 06:35:51;;;;;;;230.73;82.00;;;;;;;;;;5026714;28;20684;-68
2023/02/23 06:38:16;;;;;;;197.60;70.78;;;;;;;;;;5022055;28;20320;-68
2023/02/23 06:40:42;;;;;;;202.93;74.95;;;;;;;;;;5020403;28;20029;-68
2023/02/23 06:43:07;;;;;;;190.70;71.18;;;;;;;;;;5019445;28;20076;-68
2023/02/23 06:45:32;;;;;;;202.37;73.43;;;;;;;;;;5030657;28;20017;-68
2023/02/23 06:47:58;;;;;;;203.02;70.75;;;;;;;;;;5025697;28;21057;-69
2023/02/23 06:50:23;;;;;;;219.32;83.90;;;;;;;;;;5024007;28;20499;-68
2023/02/23 06:52:48;;;;;;;210.65;80.10;;;;;;;;;;5024280;28;20124;-68
2023/02/23 06:55:14;;;;;;;213.47;77.40;;;;;;;;;;5021722;28;20099;-68
2023/02/23 06:57:40;;;;;;;216.48;75.05;;;;;;;;;;5022393;28;20272;-68
2023/02/23 07:00:05;;;;;;;195.75;71.38;;;;;;;;;;5028026;28;20648;-68
2023/02/23 07:02:31;;;;;;;188.35;70.22;;;;;;;;;;5023733;28;20105;-68
2023/02/23 07:04:57;;;;;;;194.00;71.40;;;;;;;;;;5025433;28;20026;-68
2023/02/23 07:07:22;;;;;;;199.48;70.82;;;;;;;;;;5028660;28;20318;-68
2023/02/23 07:09:47;;;;;;;179.13;68.33;;;;;;;;;;5026833;28;20025;-68
2023/02/23 07:12:12;;;;;;;195.10;70.72;;;;;;;;;;5025894;28;20615;-68
2023/02/23 07:14:38;;;;;;;177.57;67.67;;;;;;;;;;5023180;28;20021;-70
2023/02/23 07:17:03;;;;;;;173.82;67.32;;;;;;;;;;5021848;28;20288;-70
2023/02/23 07:19:29;;;;;;;183.50;68.72;;;;;;;;;;5026230;28;20061;-70
2023/02/23 07:21:55;;;;;;;168.88;66.03;;;;;;;;;;5028732;28;20366;-69
2023/02/23 07:24:20;;;;;;;177.73;70.35;;;;;;;;;;5023969;28;20028;-69
2023/02/23 07:26:48;;;;;;;190.90;69.50;;;;;;;;;;5020417;28;20010;-70
2023/02/23 07:29:13;;;;;;;175.57;67.25;;;;;;;;;;5027454;28;20034;-70
2023/02/23 07:31:38;;;;;;;183.43;67.00;;;;;;;;;;5025173;28;20022;-70
2023/02/23 07:34:04;;;;;;;170.05;64.82;;;;;;;;;;5020277;28;20486;-69
2023/02/23 07:36:29;;;;;;;167.17;63.83;;;;;;;;;;5028641;28;20156;-69
2023/02/23 07:38:54;;;;;;;155.40;60.35;;;;;;;;;;5019314;28;20268;-69
2023/02/23 07:41:19;;;;;;;153.07;60.40;;;;;;;;;;5024394;28;20946;-70
2023/02/23 07:43:44;;;;;;;165.43;62.50;;;;;;;;;;5021372;28;20303;-70
2023/02/23 07:46:09;;;;;;;157.97;60.60;;;;;;;;;;5023607;28;20095;-69
2023/02/23 07:48:35;;;;;;;155.27;60.17;;;;;;;;;;5018937;28;20281;-69
2023/02/23 07:51:00;;;;;;;160.23;60.53;;;;;;;;;;5027465;28;20777;-69
2023/02/23 07:53:26;;;;;;;159.68;58.80;;;;;;;;;;5016587;28;20029;-69
2023/02/23 07:55:59;;;;;;;171.32;63.65;;;;;;;;;;5021912;28;20029;-69
2023/02/23 07:58:24;;;;;;;162.00;63.00;;;;;;;;;;5021073;28;20032;-69
2023/02/23 08:00:49;;;;;;;163.20;63.03;;;;;;;;;;5021926;28;20041;-69
2023/02/23 08:03:15;;;;;;;152.47;61.50;;;;;;;;;;5026353;28;20277;-69
2023/02/23 08:05:40;;;;;;;166.83;60.97;;;;;;;;;;5024600;28;20291;-69
2023/02/23 08:08:05;;;;;;;162.37;62.17;;;;;;;;;;5024197;28;20653;-69
2023/02/23 08:10:31;;;;;;;183.63;66.80;;;;;;;;;;5024234;28;20286;-69
2023/02/23 08:12:57;;;;;;;178.65;62.22;;;;;;;;;;5024060;28;20025;-69
2023/02/23 08:15:22;;;;;;;175.55;66.68;;;;;;;;;;5020026;28;20130;-69
2023/02/23 08:17:47;;;;;;;178.47;65.00;;;;;;;;;;5022375;28;20065;-71
2023/02/23 08:20:12;;;;;;;166.73;61.77;;;;;;;;;;5016970;28;20295;-69
2023/02/23 08:22:37;;;;;;;165.55;63.25;;;;;;;;;;5023466;28;20361;-69
2023/02/23 08:25:04;;;;;;;168.20;62.67;;;;;;;;;;5025152;28;20091;-69
2023/02/23 08:27:32;;;;;;;173.32;63.70;;;;;;;;;;5024325;28;21144;-69
2023/02/23 08:29:59;;;;;;;168.88;64.57;;;;;;;;;;5023450;28;20387;-69
2023/02/23 08:32:24;;;;;;;177.45;68.18;;;;;;;;;;5024296;28;20071;-69
2023/02/23 08:34:50;;;;;;;179.70;66.70;;;;;;;;;;5021414;28;20052;-69
2023/02/23 08:37:15;;;;;;;166.90;64.60;;;;;;;;;;5024367;28;20403;-69
2023/02/23 08:39:40;;;;;;;173.40;61.97;;;;;;;;;;5026094;28;20667;-69
2023/02/23 08:42:05;;;;;;;181.13;63.75;;;;;;;;;;5025607;28;20280;-69
2023/02/23 08:44:30;;;;;;;167.32;62.90;;;;;;;;;;5021564;28;20029;-69
2023/02/23 08:46:57;;;;;;;181.82;63.83;;;;;;;;;;5021757;28;20017;-69
2023/02/23 08:49:22;;;;;;;168.63;61.65;;;;;;;;;;5023385;28;20021;-69
2023/02/23 08:51:47;;;;;;;156.20;61.85;;;;;;;;;;5026103;28;20402;-69
2023/02/23 08:54:15;;;;;;;152.80;60.63;;;;;;;;;;5020229;28;20038;-69
2023/02/23 08:56:40;;;;;;;158.77;58.88;;;;;;;;;;5023724;28;20606;-69
2023/02/23 08:59:06;;;;;;;145.07;56.25;;;;;;;;;;5018823;28;20109;-69
2023/02/23 09:01:31;;;;;;;142.27;55.22;;;;;;;;;;5020664;28;20364;-69
2023/02/23 09:03:56;;;;;;;139.90;54.03;;;;;;;;;;5023747;28;20489;-69
2023/02/23 09:06:24;;;;;;;138.23;57.90;;;;;;;;;;5021940;28;20036;-69
2023/02/23 09:08:49;;;;;;;135.02;55.25;;;;;;;;;;5021967;28;20139;-69
2023/02/23 09:11:14;;;;;;;130.98;53.90;;;;;;;;;;5024689;28;20108;-69
2023/02/23 09:13:39;;;;;;;137.03;55.00;;;;;;;;;;5022990;28;20048;-69
2023/02/23 09:16:06;;;;;;;137.40;55.63;;;;;;;;;;5017423;28;20288;-69
2023/02/23 09:18:31;;;;;;;130.80;53.33;;;;;;;;;;5022293;28;20375;-69
2023/02/23 09:20:57;;;;;;;138.20;53.85;;;;;;;;;;5028223;28;20096;-69
2023/02/23 09:23:23;;;;;;;123.07;50.05;;;;;;;;;;5023141;28;20025;-69
2023/02/23 09:25:48;;;;;;;121.07;49.38;;;;;;;;;;5021984;28;20021;-69
2023/02/23 09:28:14;;;;;;;116.47;50.17;;;;;;;;;;5021245;28;20014;-69
2023/02/23 09:30:40;;;;;;;117.40;47.40;;;;;;;;;;5022576;28;20034;-69
2023/02/23 09:33:06;;;;;;;113.95;47.38;;;;;;;;;;5022697;28;20110;-69
2023/02/23 09:35:31;;;;;;;111.68;49.75;;;;;;;;;;5019820;28;20022;-69
2023/02/23 09:37:57;;;;;;;111.55;48.20;;;;;;;;;;5023423;28;20036;-69
2023/02/23 09:40:29;;;;;;;115.03;47.67;;;;;;;;;;5021472;28;20044;-69
2023/02/23 09:43:04;;;;;;;110.07;48.17;;;;;;;;;;5024697;28;20477;-69
2023/02/23 09:45:29;;;;;;;116.95;47.97;;;;;;;;;;5018028;28;20057;-69
2023/02/23 09:48:12;;;;;;;114.85;47.97;;;;;;;;;;5020752;28;20486;-69
2023/02/23 09:50:38;;;;;;;107.55;44.42;;;;;;;;;;5024169;28;20075;-69
2023/02/23 09:53:05;;;;;;;100.80;46.85;;;;;;;;;;5023435;28;20557;-69
2023/02/23 09:55:31;;;;;;;103.35;45.55;;;;;;;;;;5016985;28;20041;-69
2023/02/23 09:58:01;;;;;;;106.80;45.65;;;;;;;;;;5019538;28;20022;-69
2023/02/23 10:00:27;;;;;;;111.85;46.70;;;;;;;;;;5023931;28;20025;-69
2023/02/23 10:03:16;;;;;;;105.22;44.55;;;;;;;;;;5028291;28;20028;-69
2023/02/23 10:06:01;;;;;;;120.55;50.65;;;;;;;;;;5022621;28;20021;-69
2023/02/23 10:08:33;;;;;;;108.95;47.83;;;;;;;;;;5024423;28;20038;-69
2023/02/23 10:11:16;;;;;;;109.70;48.85;;;;;;;;;;5019239;28;20033;-69
2023/02/23 10:13:54;;;;;;;112.38;46.50;;;;;;;;;;5025744;28;20156;-69
2023/02/23 10:16:22;;;;;;;119.57;50.15;;;;;;;;;;5020217;28;20088;-69
2023/02/23 10:19:06;;;;;;;118.07;52.03;;;;;;;;;;5024032;28;20417;-69
2023/02/23 10:21:42;;;;;;;124.60;50.28;;;;;;;;;;5021034;28;20029;-69
2023/02/23 10:24:15;;;;;;;121.35;55.28;;;;;;;;;;5022418;28;20049;-69
2023/02/23 10:26:43;;;;;;;108.88;48.22;;;;;;;;;;5024689;28;20391;-69
2023/02/23 10:29:20;;;;;;;115.43;51.55;;;;;;;;;;5021227;28;20017;-69
2023/02/23 10:31:47;;;;;;;114.40;47.45;;;;;;;;;;5025492;28;20032;-69
2023/02/23 10:34:14;;;;;;;108.70;48.85;;;;;;;;;;5018197;28;20033;-69
2023/02/23 10:37:00;;;;;;;114.72;48.20;;;;;;;;;;5024244;28;20060;-69
2023/02/23 10:39:26;;;;;;;114.78;46.22;;;;;;;;;;5021326;28;20068;-69
2023/02/23 10:41:52;;;;;;;100.07;44.50;;;;;;;;;;5022669;28;20045;-69
2023/02/23 10:44:19;;;;;;;107.57;49.72;;;;;;;;;;5019449;28;20044;-69
2023/02/23 10:46:45;;;;;;;114.38;49.72;;;;;;;;;;5024984;28;20021;-69
2023/02/23 10:49:16;;;;;;;115.80;50.90;;;;;;;;;;5025360;28;20137;-69
2023/02/23 10:51:42;;;;;;;109.00;46.88;;;;;;;;;;5020991;28;20022;-69
2023/02/23 10:54:32;;;;;;;114.80;48.42;;;;;;;;;;5018013;28;20032;-69
2023/02/23 10:56:58;;;;;;;116.97;46.03;;;;;;;;;;5024091;28;20571;-69
2023/02/23 10:59:23;;;;;;;105.38;46.25;;;;;;;;;;5023771;28;20033;-69
2023/02/23 11:01:48;;;;;;;113.73;47.23;;;;;;;;;;5023088;28;20030;-69
2023/02/23 11:04:13;;;;;;;113.20;52.90;;;;;;;;;;5028762;28;20345;-69
2023/02/23 11:06:38;;;;;;;109.47;49.30;;;;;;;;;;5022036;28;20033;-69
2023/02/23 11:09:22;;;;;;;114.78;50.05;;;;;;;;;;5024215;28;20394;-69
2023/02/23 11:11:59;;;;;;;117.35;50.28;;;;;;;;;;5025112;28;20018;-69
2023/02/23 11:14:26;;;;;;;113.95;49.33;;;;;;;;;;5024099;28;20021;-69
2023/02/23 11:16:52;;;;;;;111.72;47.72;;;;;;;;;;5022258;28;20086;-69
2023/02/23 11:19:37;;;;;;;111.60;46.20;;;;;;;;;;5023587;28;20026;-69
2023/02/23 11:22:04;;;;;;;120.63;48.30;;;;;;;;;;5016793;28;20053;-69
2023/02/23 11:24:36;;;;;;;109.70;48.45;;;;;;;;;;5024072;28;20449;-69
2023/02/23 11:27:06;;;;;;;111.78;42.95;;;;;;;;;;5024426;28;20029;-69
2023/02/23 11:29:34;;;;;;;116.38;46.88;;;;;;;;;;5020582;28;20483;-69
2023/02/23 11:32:04;;;;;;;103.80;41.50;;;;;;;;;;5023641;28;20108;-69
2023/02/23 11:34:30;;;;;;;99.38;44.53;;;;;;;;;;5021919;28;20489;-69
2023/02/23 11:37:00;;;;;;;90.93;38.78;;;;;;;;;;5028726;28;20052;-69
2023/02/23 11:39:25;;;;;;;99.40;44.45;;;;;;;;;;5028336;28;20546;-69
2023/02/23 11:42:08;;;;;;;112.50;42.30;;;;;;;;;;5022048;28;20033;-68
2023/02/23 11:44:33;;;;;;;100.70;41.35;;;;;;;;;;5028718;28;20272;-69
2023/02/23 11:47:00;;;;;;;97.35;41.08;;;;;;;;;;5029531;28;20025;-69
2023/02/23 11:49:32;;;;;;;105.85;39.35;;;;;;;;;;5029321;28;20123;-69
2023/02/23 11:51:58;;;;;;;120.65;45.40;;;;;;;;;;5020808;28;20540;-69
2023/02/23 11:54:33;;;;;;;108.32;41.97;;;;;;;;;;5025678;28;20086;-69
2023/02/23 11:57:01;;;;;;;130.70;50.75;;;;;;;;;;5022222;28;20196;-69
2023/02/23 11:59:35;;;;;;;122.20;46.60;;;;;;;;;;5022032;28;20397;-69
2023/02/23 12:02:03;;;;;;;139.45;47.45;;;;;;;;;;5021124;28;20478;-69
2023/02/23 12:04:31;;;;;;;140.68;51.30;;;;;;;;;;5024187;28;20469;-69
2023/02/23 12:07:14;;;;;;;151.65;50.83;;;;;;;;;;5025402;28;20068;-69
2023/02/23 12:09:40;;;;;;;136.90;48.70;;;;;;;;;;5021865;28;20417;-69
2023/02/23 12:12:08;;;;;;;128.35;45.40;;;;;;;;;;5021139;28;20024;-69
2023/02/23 12:14:33;;;;;;;141.45;45.70;;;;;;;;;;5029223;28;20025;-69
2023/02/23 12:17:02;;;;;;;136.00;46.50;;;;;;;;;;5025021;28;20041;-69
2023/02/23 12:19:31;;;;;;;126.85;45.47;;;;;;;;;;5021052;28;20272;-69
2023/02/23 12:22:14;;;;;;;121.63;43.15;;;;;;;;;;5023639;28;20022;-69
2023/02/23 12:24:42;;;;;;;124.40;44.45;;;;;;;;;;5022751;28;20021;-69
2023/02/23 12:27:11;;;;;;;119.93;42.40;;;;;;;;;;5021054;28;20018;-69
2023/02/23 12:29:55;;;;;;;116.13;41.97;;;;;;;;;;5022142;28;20029;-69
2023/02/23 12:32:22;;;;;;;114.82;44.33;;;;;;;;;;5029896;28;20033;-69
2023/02/23 12:34:59;;;;;;;126.03;42.95;;;;;;;;;;5021106;28;20482;-68
2023/02/23 12:37:28;;;;;;;128.15;42.70;;;;;;;;;;5019988;28;20152;-69
2023/02/23 12:39:57;;;;;;;124.78;44.67;;;;;;;;;;5026461;28;20091;-69
2023/02/23 12:42:34;;;;;;;118.53;44.35;;;;;;;;;;5024944;28;20022;-69
2023/02/23 12:45:03;;;;;;;101.43;37.70;;;;;;;;;;5019429;28;20026;-69
2023/02/23 12:47:28;;;;;;;115.88;39.92;;;;;;;;;;5024860;28;20072;-69
2023/02/23 12:49:57;;;;;;;104.38;37.78;;;;;;;;;;5022036;28;20494;-69
2023/02/23 12:52:28;;;;;;;105.40;36.53;;;;;;;;;;5024024;28;20653;-69
2023/02/23 12:54:53;;;;;;;91.15;35.47;;;;;;;;;;5023212;28;20071;-69
2023/02/23 12:57:27;;;;;;;83.95;34.30;;;;;;;;;;5016779;28;20037;-69
2023/02/23 13:00:19;;;;;;;85.22;34.65;;;;;;;;;;5018189;28;20059;-69
2023/02/23 13:02:48;;;;;;;85.15;32.55;;;;;;;;;;5017517;28;20026;-69
2023/02/23 13:05:23;;;;;;;83.50;31.40;;;;;;;;;;5017745;28;20105;-69
2023/02/23 13:08:11;;;;;;;89.07;32.78;;;;;;;;;;5018462;28;20028;-69
2023/02/23 13:10:54;;;;;;;89.85;31.23;;;;;;;;;;5022492;28;20029;-69
2023/02/23 13:13:54;;;;;;;92.10;31.55;;;;;;;;;;5025949;28;20463;-69
2023/02/23 13:16:29;;;;;;;74.30;28.17;;;;;;;;;;5003721;28;20037;-69
2023/02/23 13:19:10;;;;;;;83.43;31.85;;;;;;;;;;5021633;28;20045;-69
2023/02/23 13:21:40;;;;;;;91.03;30.02;;;;;;;;;;5022691;28;20052;-69
2023/02/23 13:24:17;;;;;;;84.00;30.40;;;;;;;;;;5019806;28;20030;-69
2023/02/23 13:26:51;;;;;;;92.47;33.42;;;;;;;;;;5026663;28;20087;-69
2023/02/23 13:29:17;;;;;;;95.95;32.03;;;;;;;;;;5022412;28;20080;-69
2023/02/23 13:31:42;;;;;;;79.43;30.48;;;;;;;;;;5022690;28;20433;-69
2023/02/23 13:34:15;;;;;;;87.18;30.48;;;;;;;;;;5026577;28;20276;-69
2023/02/23 13:36:41;;;;;;;85.95;29.02;;;;;;;;;;5029082;28;20068;-69
2023/02/23 13:39:15;;;;;;;80.95;27.60;;;;;;;;;;5026476;28;20053;-69
2023/02/23 13:42:00;;;;;;;83.88;27.83;;;;;;;;;;5026203;28;20429;-69
2023/02/23 13:44:30;;;;;;;81.13;28.65;;;;;;;;;;5020645;28;20030;-69
2023/02/23 13:46:58;;;;;;;70.43;24.98;;;;;;;;;;5024687;28;20148;-69
2023/02/23 13:49:48;;;;;;;73.00;25.05;;;;;;;;;;5024278;28;20080;-69
2023/02/23 13:52:32;;;;;;;71.90;25.90;;;;;;;;;;5029702;28;20502;-69
2023/02/23 13:55:02;;;;;;;64.75;26.45;;;;;;;;;;5029322;28;20021;-69
2023/02/23 13:57:28;;;;;;;70.65;25.13;;;;;;;;;;5027003;28;20025;-69
2023/02/23 13:59:53;;;;;;;74.13;25.55;;;;;;;;;;5027193;28;20482;-69
2023/02/23 14:02:27;;;;;;;69.85;25.67;;;;;;;;;;5026759;28;20038;-70
2023/02/23 14:04:55;;;;;;;68.55;24.40;;;;;;;;;;5028249;28;20067;-69
2023/02/23 14:07:24;;;;;;;74.15;26.58;;;;;;;;;;5023854;28;20026;-69
2023/02/23 14:09:53;;;;;;;65.82;25.90;;;;;;;;;;5027384;28;20029;-69
2023/02/23 14:12:31;;;;;;;68.10;26.20;;;;;;;;;;5024007;28;20027;-69
2023/02/23 14:15:16;;;;;;;78.95;29.25;;;;;;;;;;5019707;28;20045;-69
2023/02/23 14:17:42;;;;;;;67.90;26.55;;;;;;;;;;5018950;28;20033;-69
2023/02/23 14:20:10;;;;;;;71.10;27.10;;;;;;;;;;5023906;28;20080;-69
2023/02/23 14:22:36;;;;;;;72.03;25.73;;;;;;;;;;5024976;28;20486;-69
2023/02/23 14:25:20;;;;;;;67.40;25.85;;;;;;;;;;5022358;28;20021;-69
2023/02/23 14:27:59;;;;;;;72.10;25.27;;;;;;;;;;5026558;28;20096;-69
2023/02/23 14:30:25;;;;;;;60.53;25.70;;;;;;;;;;5019212;28;20101;-69
2023/02/23 14:32:52;;;;;;;66.05;26.08;;;;;;;;;;5021155;28;20049;-69
2023/02/23 14:35:32;;;;;;;66.65;25.38;;;;;;;;;;5027709;28;20036;-69
2023/02/23 14:38:02;;;;;;;68.50;25.25;;;;;;;;;;5022721;28;20040;-69
2023/02/23 14:40:32;;;;;;;59.67;25.25;;;;;;;;;;5019518;28;20088;-69
2023/02/23 14:43:00;;;;;;;60.08;23.85;;;;;;;;;;5020237;28;20013;-69
2023/02/23 14:45:27;;;;;;;59.63;23.55;;;;;;;;;;5021403;28;20034;-69
2023/02/23 14:47:55;;;;;;;53.85;22.67;;;;;;;;;;5027249;28;20104;-69
2023/02/23 14:50:24;;;;;;;65.75;25.10;;;;;;;;;;5026323;28;20055;-69
2023/02/23 14:52:50;;;;;;;68.68;25.73;;;;;;;;;;5021260;28;21739;-69
2023/02/23 14:55:19;;;;;;;61.25;24.67;;;;;;;;;;5019683;28;20040;-69
2023/02/23 14:57:45;;;;;;;61.95;26.00;;;;;;;;;;5019406;28;20485;-69
2023/02/23 15:00:13;;;;;;;72.30;28.37;;;;;;;;;;5021328;28;20061;-69
2023/02/23 15:02:39;;;;;;;63.40;29.50;;;;;;;;;;5019903;28;20268;-69
2023/02/23 15:05:15;;;;;;;65.05;27.50;;;;;;;;;;5024781;28;20026;-69
2023/02/23 15:07:40;;;;;;;59.13;26.08;;;;;;;;;;5020605;28;20060;-69
2023/02/23 15:10:10;;;;;;;58.08;23.42;;;;;;;;;;5020985;28;20383;-69
2023/02/23 15:12:36;;;;;;;65.78;24.38;;;;;;;;;;5023542;28;20466;-69
2023/02/23 15:15:03;;;;;;;53.45;21.25;;;;;;;;;;5026249;28;20040;-69
2023/02/23 15:17:30;;;;;;;52.03;21.90;;;;;;;;;;5019060;28;20576;-69
2023/02/23 15:20:00;;;;;;;54.90;21.38;;;;;;;;;;5026671;28;20381;-69
2023/02/23 15:22:35;;;;;;;44.45;18.80;;;;;;;;;;5027518;28;20026;-69
2023/02/23 15:25:04;;;;;;;48.17;19.38;;;;;;;;;;5016909;28;20053;-69
2023/02/23 15:27:36;;;;;;;51.00;19.55;;;;;;;;;;5017924;28;20076;-69
2023/02/23 15:30:16;;;;;;;48.25;19.25;;;;;;;;;;5015323;28;20021;-69
2023/02/23 15:32:41;;;;;;;52.83;21.45;;;;;;;;;;5021852;28;20013;-69
2023/02/23 15:35:09;;;;;;;43.63;18.20;;;;;;;;;;5022581;28;20014;-69
2023/02/23 15:37:39;;;;;;;52.13;19.90;;;;;;;;;;5020462;28;20299;-69
2023/02/23 15:40:05;;;;;;;46.15;19.65;;;;;;;;;;5020763;28;20032;-69